createdAt,value
2018-08-31T00:02:09.773Z,51.09
2018-08-31T00:04:43.714Z,50.39
2018-08-31T00:07:16.852Z,50.36
2018-08-31T00:09:50.060Z,50.48
2018-08-31T00:12:35.537Z,50.53
2018-08-31T00:15:03.272Z,50.67
2018-08-31T00:17:30.972Z,51.14
2018-08-31T00:19:58.648Z,50.44
2018-08-31T00:22:26.312Z,51.10
2018-08-31T00:25:03.450Z,51.24
2018-08-31T00:27:36.613Z,51.09
2018-08-31T00:30:09.869Z,50.47
2018-08-31T00:33:40.581Z,51.14
2018-08-31T00:36:12.997Z,50.39
2018-08-31T00:38:49.082Z,51.17
2018-08-31T00:42:24.031Z,50.48
2018-08-31T00:45:25.742Z,51.26
2018-08-31T00:47:53.554Z,51.30
2018-08-31T00:50:21.220Z,50.79
2018-08-31T00:52:48.918Z,50.56
2018-08-31T00:55:16.688Z,51.18
2018-08-31T00:57:44.315Z,51.13
2018-08-31T01:00:11.969Z,50.43
2018-08-31T01:02:39.661Z,51.05
2018-08-31T01:05:07.329Z,51.26
2018-08-31T01:07:35.070Z,50.48
2018-08-31T01:10:02.829Z,51.17
2018-08-31T01:12:30.500Z,50.50
2018-08-31T01:14:58.185Z,51.03
2018-08-31T01:17:25.838Z,50.50
2018-08-31T01:19:53.619Z,50.53
2018-08-31T01:22:21.497Z,51.35
2018-08-31T01:24:49.214Z,51.25
2018-08-31T01:27:16.881Z,51.16
2018-08-31T01:29:44.775Z,50.56
2018-08-31T01:32:12.579Z,50.67
2018-08-31T01:34:41.006Z,50.60
2018-08-31T01:37:08.669Z,51.33
2018-08-31T01:39:36.439Z,51.26
2018-08-31T01:42:04.263Z,50.58
2018-08-31T01:44:31.996Z,50.61
2018-08-31T01:46:59.720Z,50.55
2018-08-31T01:49:27.441Z,50.54
2018-08-31T01:51:55.159Z,51.17
2018-08-31T01:54:22.933Z,51.18
2018-08-31T01:56:50.701Z,50.65
2018-08-31T01:59:18.377Z,50.70
2018-08-31T02:01:46.102Z,50.72
2018-08-31T02:04:13.844Z,50.84
2018-08-31T02:06:41.660Z,50.63
2018-08-31T02:09:14.562Z,50.61
2018-08-31T02:11:42.279Z,51.40
2018-08-31T02:14:10.068Z,51.25
2018-08-31T02:16:38.321Z,51.16
2018-08-31T02:19:06.046Z,51.48
2018-08-31T02:21:34.610Z,51.49
2018-08-31T02:24:02.885Z,50.60
2018-08-31T02:26:30.662Z,50.83
2018-08-31T02:28:58.353Z,51.40
2018-08-31T02:31:26.055Z,50.58
2018-08-31T02:33:54.513Z,50.67
2018-08-31T02:36:22.331Z,51.47
2018-08-31T02:38:50.149Z,50.96
2018-08-31T02:41:18.235Z,50.73
2018-08-31T02:43:47.125Z,50.82
2018-08-31T02:46:14.958Z,50.77
2018-08-31T02:48:42.727Z,51.49
2018-08-31T02:51:10.409Z,51.29
2018-08-31T02:53:38.160Z,50.76
2018-08-31T02:56:06.204Z,50.86
2018-08-31T02:58:33.914Z,50.80
2018-08-31T03:01:01.783Z,51.07
2018-08-31T03:03:29.794Z,51.44
2018-08-31T03:05:57.550Z,51.58
2018-08-31T03:08:25.322Z,51.55
2018-08-31T03:10:53.041Z,50.90
2018-08-31T03:13:20.716Z,51.49
2018-08-31T03:15:48.433Z,51.55
2018-08-31T03:18:16.101Z,50.81
2018-08-31T03:20:43.735Z,50.84
2018-08-31T03:23:11.368Z,51.41
2018-08-31T03:25:38.988Z,51.18
2018-08-31T03:28:06.633Z,51.51
2018-08-31T03:30:34.265Z,51.54
2018-08-31T03:33:01.905Z,51.26
2018-08-31T03:35:29.525Z,51.54
2018-08-31T03:37:57.450Z,51.57
2018-08-31T03:40:25.290Z,51.31
2018-08-31T03:42:52.974Z,50.85
2018-08-31T03:45:20.800Z,50.94
2018-08-31T03:47:48.693Z,51.55
2018-08-31T03:50:16.308Z,51.42
2018-08-31T03:52:43.973Z,51.77
2018-08-31T03:55:11.648Z,51.12
2018-08-31T03:57:39.338Z,50.78
2018-08-31T04:00:07.615Z,51.00
2018-08-31T04:02:35.231Z,51.60
2018-08-31T04:05:02.848Z,51.58
2018-08-31T04:07:30.468Z,50.77
2018-08-31T04:09:58.097Z,51.36
2018-08-31T04:12:25.721Z,51.69
2018-08-31T04:14:53.367Z,51.32
2018-08-31T04:17:21.010Z,51.57
2018-08-31T04:19:48.657Z,51.58
2018-08-31T04:22:16.276Z,51.44
2018-08-31T04:24:44.008Z,51.53
2018-08-31T04:27:11.625Z,51.50
2018-08-31T04:29:39.245Z,51.34
2018-08-31T04:32:06.875Z,51.54
2018-08-31T04:34:34.544Z,51.47
2018-08-31T04:37:02.228Z,50.70
2018-08-31T04:39:29.840Z,51.24
2018-08-31T04:41:57.458Z,50.64
2018-08-31T04:44:25.326Z,51.19
2018-08-31T04:46:53.008Z,51.36
2018-08-31T04:49:20.649Z,51.37
2018-08-31T04:51:48.274Z,51.43
2018-08-31T04:54:15.894Z,51.40
2018-08-31T04:56:43.529Z,50.66
2018-08-31T04:59:11.165Z,50.66
2018-08-31T05:01:38.805Z,51.40
2018-08-31T05:04:06.453Z,50.91
2018-08-31T05:06:34.093Z,50.56
2018-08-31T05:09:01.712Z,50.48
2018-08-31T05:11:29.338Z,50.56
2018-08-31T05:13:56.964Z,50.96
2018-08-31T05:16:24.585Z,51.06
2018-08-31T05:18:52.205Z,51.25
2018-08-31T05:21:19.860Z,51.22
2018-08-31T05:23:47.541Z,50.32
2018-08-31T05:26:15.156Z,50.04
2018-08-31T05:28:42.777Z,50.58
2018-08-31T05:31:10.406Z,50.12
2018-08-31T05:33:38.106Z,50.99
2018-08-31T05:36:05.726Z,50.35
2018-08-31T05:38:33.373Z,50.20
2018-08-31T05:41:00.993Z,50.90
2018-08-31T05:43:28.642Z,50.60
2018-08-31T05:45:56.292Z,50.07
2018-08-31T05:48:23.921Z,50.94
2018-08-31T05:50:51.563Z,50.80
2018-08-31T05:53:19.184Z,50.86
2018-08-31T05:55:46.815Z,50.90
2018-08-31T05:58:14.445Z,50.63
2018-08-31T06:00:42.086Z,50.32
2018-08-31T06:03:09.715Z,50.91
2018-08-31T06:05:37.329Z,50.29
2018-08-31T06:08:04.975Z,50.71
2018-08-31T06:10:32.864Z,50.98
2018-08-31T06:13:00.534Z,50.54
2018-08-31T06:15:28.178Z,50.25
2018-08-31T06:17:55.806Z,50.83
2018-08-31T06:20:23.437Z,50.70
2018-08-31T06:22:51.215Z,50.97
2018-08-31T06:25:18.846Z,50.33
2018-08-31T06:27:46.508Z,50.61
2018-08-31T06:30:14.121Z,51.06
2018-08-31T06:32:41.854Z,50.98
2018-08-31T06:35:09.422Z,50.35
2018-08-31T06:37:37.043Z,50.52
2018-08-31T06:40:04.851Z,50.57
2018-08-31T06:42:32.478Z,51.19
2018-08-31T06:45:00.110Z,51.20
2018-08-31T06:47:27.732Z,50.38
2018-08-31T06:49:55.384Z,51.08
2018-08-31T06:52:23.001Z,51.04
2018-08-31T06:54:50.634Z,50.60
2018-08-31T06:57:18.244Z,50.30
2018-08-31T06:59:45.884Z,50.72
2018-08-31T07:02:13.541Z,51.09
2018-08-31T07:04:41.233Z,50.82
2018-08-31T07:07:08.885Z,51.53
2018-08-31T07:09:36.526Z,51.45
2018-08-31T07:12:04.152Z,51.35
2018-08-31T07:14:31.786Z,50.56
2018-08-31T07:16:59.409Z,50.56
2018-08-31T07:19:27.702Z,51.21
2018-08-31T07:21:55.290Z,50.57
2018-08-31T07:24:22.970Z,51.10
2018-08-31T07:26:50.631Z,50.44
2018-08-31T07:29:18.266Z,50.73
2018-08-31T07:31:45.952Z,50.20
2018-08-31T07:34:13.597Z,50.89
2018-08-31T07:36:41.241Z,50.90
2018-08-31T07:39:09.312Z,50.65
2018-08-31T07:41:37.014Z,50.64
2018-08-31T07:44:04.651Z,50.02
2018-08-31T07:46:32.280Z,50.07
2018-08-31T07:48:59.915Z,50.82
2018-08-31T07:51:27.542Z,50.59
2018-08-31T07:53:55.181Z,51.07
2018-08-31T07:56:22.826Z,51.00
2018-08-31T07:58:50.666Z,51.26
2018-08-31T08:01:18.297Z,50.49
2018-08-31T08:03:45.938Z,51.21
2018-08-31T08:06:13.709Z,50.61
2018-08-31T08:08:41.338Z,51.33
2018-08-31T08:11:09.228Z,51.50
2018-08-31T08:13:37.233Z,50.81
2018-08-31T08:16:05.093Z,50.87
2018-08-31T08:18:32.953Z,51.46
2018-08-31T08:21:00.626Z,51.03
2018-08-31T08:23:28.298Z,51.36
2018-08-31T08:25:56.106Z,51.45
2018-08-31T08:28:24.002Z,51.49
2018-08-31T08:30:51.835Z,51.18
2018-08-31T08:33:19.639Z,51.81
2018-08-31T08:35:47.372Z,52.15
2018-08-31T08:38:15.119Z,52.04
2018-08-31T08:40:42.922Z,52.09
2018-08-31T08:43:10.734Z,52.00
2018-08-31T08:45:38.427Z,52.56
2018-08-31T08:48:06.326Z,52.16
2018-08-31T08:50:34.001Z,52.37
2018-08-31T08:53:02.085Z,52.11
2018-08-31T08:55:29.864Z,51.56
2018-08-31T08:57:57.683Z,52.18
2018-08-31T09:00:25.394Z,51.69
2018-08-31T09:02:53.126Z,52.53
2018-08-31T09:05:20.960Z,52.59
2018-08-31T09:07:48.841Z,51.81
2018-08-31T09:10:16.617Z,51.83
2018-08-31T09:12:44.596Z,51.80
2018-08-31T09:15:12.290Z,51.82
2018-08-31T09:17:40.156Z,52.63
2018-08-31T09:20:07.940Z,52.73
2018-08-31T09:22:35.662Z,51.82
2018-08-31T09:25:03.748Z,52.66
2018-08-31T09:27:32.738Z,51.50
2018-08-31T09:30:00.526Z,51.92
2018-08-31T09:32:28.885Z,52.44
2018-08-31T09:34:57.353Z,51.89
2018-08-31T09:37:25.092Z,51.92
2018-08-31T09:39:52.826Z,52.25
2018-08-31T09:42:20.576Z,52.68
2018-08-31T09:44:48.316Z,52.24
2018-08-31T09:47:16.132Z,51.86
2018-08-31T09:49:44.893Z,51.79
2018-08-31T09:52:13.167Z,51.51
2018-08-31T09:54:40.826Z,52.21
2018-08-31T09:57:08.593Z,52.20
2018-08-31T09:59:36.293Z,51.38
2018-08-31T10:02:05.900Z,51.62
2018-08-31T10:04:33.684Z,51.65
2018-08-31T10:07:01.394Z,51.94
2018-08-31T10:09:29.870Z,52.10
2018-08-31T10:11:57.719Z,52.42
2018-08-31T10:14:25.526Z,52.43
2018-08-31T10:16:53.257Z,51.92
2018-08-31T10:19:20.950Z,52.55
2018-08-31T10:21:48.612Z,51.87
2018-08-31T10:24:16.288Z,52.46
2018-08-31T10:26:44.066Z,52.64
2018-08-31T10:29:11.956Z,52.46
2018-08-31T10:31:39.761Z,51.86
2018-08-31T10:34:07.470Z,52.46
2018-08-31T10:36:35.205Z,51.66
2018-08-31T10:39:03.140Z,51.81
2018-08-31T10:41:30.964Z,52.55
2018-08-31T10:43:58.642Z,52.41
2018-08-31T10:46:26.383Z,52.51
2018-08-31T10:48:54.110Z,52.80
2018-08-31T10:51:21.857Z,52.58
2018-08-31T10:53:49.637Z,51.79
2018-08-31T10:56:17.357Z,51.64
2018-08-31T10:58:45.086Z,51.61
2018-08-31T11:01:12.886Z,51.64
2018-08-31T11:03:40.663Z,52.44
2018-08-31T11:06:08.481Z,51.73
2018-08-31T11:08:36.213Z,52.33
2018-08-31T11:11:04.014Z,52.13
2018-08-31T11:13:31.741Z,52.41
2018-08-31T11:15:59.509Z,52.13
2018-08-31T11:18:27.290Z,52.45
2018-08-31T11:20:55.042Z,52.45
2018-08-31T11:23:22.778Z,52.31
2018-08-31T11:25:50.562Z,52.17
2018-08-31T11:28:18.257Z,52.71
2018-08-31T11:30:45.997Z,51.77
2018-08-31T11:33:13.673Z,52.11
2018-08-31T11:35:41.493Z,52.47
2018-08-31T11:38:09.193Z,52.44
2018-08-31T11:40:37.243Z,53.40
2018-08-31T11:43:05.212Z,53.00
2018-08-31T11:45:33.002Z,53.64
2018-08-31T11:48:00.734Z,53.05
2018-08-31T11:50:28.501Z,53.34
2018-08-31T11:52:56.180Z,53.65
2018-08-31T11:55:24.078Z,53.86
2018-08-31T11:57:51.893Z,54.10
2018-08-31T12:00:19.628Z,53.14
2018-08-31T12:02:47.381Z,53.28
2018-08-31T12:05:15.131Z,54.22
2018-08-31T12:07:42.939Z,54.10
2018-08-31T12:10:10.708Z,54.05
2018-08-31T12:12:38.428Z,53.89
2018-08-31T12:15:06.181Z,53.90
2018-08-31T12:17:34.350Z,54.27
2018-08-31T12:20:02.045Z,53.81
2018-08-31T12:22:29.800Z,54.05
2018-08-31T12:24:58.617Z,54.36
2018-08-31T12:27:26.717Z,54.80
2018-08-31T12:29:54.483Z,55.17
2018-08-31T12:32:22.173Z,56.01
2018-08-31T12:34:49.954Z,56.48
2018-08-31T12:37:17.971Z,55.79
2018-08-31T12:39:45.806Z,56.49
2018-08-31T12:42:13.591Z,56.27
2018-08-31T12:44:41.414Z,55.87
2018-08-31T12:47:09.097Z,56.29
2018-08-31T12:49:36.840Z,56.85
2018-08-31T12:52:04.575Z,56.42
2018-08-31T12:54:32.265Z,57.39
2018-08-31T12:56:59.958Z,56.89
2018-08-31T12:59:27.649Z,56.88
2018-08-31T13:01:55.512Z,56.88
2018-08-31T13:04:23.259Z,57.83
2018-08-31T13:06:51.009Z,56.93
2018-08-31T13:09:18.727Z,57.63
2018-08-31T13:11:46.462Z,57.11
2018-08-31T13:14:14.181Z,57.08
2018-08-31T13:16:41.898Z,56.95
2018-08-31T13:19:09.640Z,57.26
2018-08-31T13:21:37.382Z,57.10
2018-08-31T13:24:05.151Z,56.78
2018-08-31T13:26:32.838Z,56.65
2018-08-31T13:29:00.552Z,56.75
2018-08-31T13:31:28.246Z,56.84
2018-08-31T13:33:56.038Z,56.82
2018-08-31T13:36:23.773Z,56.85
2018-08-31T13:38:51.520Z,56.71
2018-08-31T13:41:19.274Z,56.94
2018-08-31T13:43:46.944Z,57.00
2018-08-31T13:46:14.705Z,57.42
2018-08-31T13:48:42.449Z,57.78
2018-08-31T13:51:10.249Z,57.14
2018-08-31T13:53:38.001Z,57.76
2018-08-31T13:56:05.712Z,57.15
2018-08-31T13:58:33.521Z,58.19
2018-08-31T14:01:01.236Z,57.31
2018-08-31T14:03:29.041Z,57.31
2018-08-31T14:05:56.768Z,58.22
2018-08-31T14:08:24.480Z,58.30
2018-08-31T14:10:52.237Z,58.16
2018-08-31T14:13:20.022Z,57.26
2018-08-31T14:15:47.804Z,57.13
2018-08-31T14:18:15.486Z,57.93
2018-08-31T14:20:43.153Z,57.79
2018-08-31T14:23:10.962Z,57.72
2018-08-31T14:25:38.667Z,56.77
2018-08-31T14:28:06.496Z,57.38
2018-08-31T14:30:34.257Z,57.30
2018-08-31T14:33:02.036Z,57.00
2018-08-31T14:35:30.034Z,56.40
2018-08-31T14:37:57.807Z,56.40
2018-08-31T14:40:25.575Z,57.58
2018-08-31T14:42:53.384Z,56.32
2018-08-31T14:45:21.184Z,56.10
2018-08-31T14:47:49.011Z,56.26
2018-08-31T14:50:16.742Z,56.04
2018-08-31T14:52:44.561Z,56.75
2018-08-31T14:55:12.314Z,55.91
2018-08-31T14:57:40.052Z,55.88
2018-08-31T15:00:07.805Z,55.89
2018-08-31T15:02:35.661Z,55.75
2018-08-31T15:05:03.465Z,56.02
2018-08-31T15:07:31.240Z,56.57
2018-08-31T15:09:59.058Z,55.70
2018-08-31T15:12:26.869Z,56.55
2018-08-31T15:14:54.566Z,55.83
2018-08-31T15:17:22.325Z,56.37
2018-08-31T15:19:50.065Z,55.54
2018-08-31T15:22:17.741Z,55.66
2018-08-31T15:24:45.432Z,56.35
2018-08-31T15:27:13.179Z,56.25
2018-08-31T15:29:40.853Z,55.51
2018-08-31T15:32:08.511Z,55.77
2018-08-31T15:34:36.209Z,56.20
2018-08-31T15:37:03.864Z,56.11
2018-08-31T15:39:31.494Z,56.29
2018-08-31T15:41:59.213Z,55.31
2018-08-31T15:44:26.908Z,55.61
2018-08-31T15:46:54.553Z,55.26
2018-08-31T15:49:22.218Z,55.94
2018-08-31T15:51:49.862Z,55.33
2018-08-31T15:54:17.510Z,55.34
2018-08-31T15:56:45.181Z,56.08
2018-08-31T15:59:12.830Z,55.75
2018-08-31T16:01:40.560Z,55.97
2018-08-31T16:04:08.281Z,56.09
2018-08-31T16:06:35.912Z,55.24
2018-08-31T16:09:04.587Z,56.28
2018-08-31T16:11:32.339Z,56.03
2018-08-31T16:13:59.965Z,56.47
2018-08-31T16:16:27.576Z,55.55
2018-08-31T16:18:55.253Z,55.76
2018-08-31T16:21:22.848Z,57.03
2018-08-31T16:23:50.476Z,57.07
2018-08-31T16:26:18.108Z,57.11
2018-08-31T16:28:45.759Z,56.97
2018-08-31T16:31:13.422Z,56.28
2018-08-31T16:33:41.049Z,57.02
2018-08-31T16:36:08.674Z,56.46
2018-08-31T16:38:36.307Z,56.89
2018-08-31T16:41:03.950Z,57.31
2018-08-31T16:43:31.592Z,56.71
2018-08-31T16:45:59.280Z,56.55
2018-08-31T16:48:26.904Z,57.58
2018-08-31T16:50:54.577Z,57.63
2018-08-31T16:53:22.378Z,57.69
2018-08-31T16:55:50.176Z,57.56
2018-08-31T16:58:17.923Z,58.68
2018-08-31T17:00:45.729Z,58.14
2018-08-31T17:03:13.452Z,58.00
2018-08-31T17:05:41.252Z,57.90
2018-08-31T17:08:09.022Z,57.52
2018-08-31T17:10:36.752Z,57.46
2018-08-31T17:13:04.482Z,56.88
2018-08-31T17:15:32.216Z,58.13
2018-08-31T17:17:59.939Z,56.50
2018-08-31T17:20:27.617Z,56.93
2018-08-31T17:22:55.621Z,56.81
2018-08-31T17:25:23.303Z,56.90
2018-08-31T17:27:56.269Z,57.59
2018-08-31T17:30:24.074Z,57.78
2018-08-31T17:32:57.197Z,57.71
2018-08-31T17:35:30.240Z,58.02
2018-08-31T17:37:59.351Z,56.97
2018-08-31T17:40:27.167Z,57.95
2018-08-31T17:42:54.919Z,58.67
2018-08-31T17:45:22.670Z,58.02
2018-08-31T17:47:51.093Z,57.83
2018-08-31T17:50:18.878Z,56.92
2018-08-31T17:52:46.932Z,57.78
2018-08-31T17:55:15.075Z,57.95
2018-08-31T17:57:43.149Z,57.14
2018-08-31T18:00:11.301Z,56.73
2018-08-31T18:02:38.989Z,57.11
2018-08-31T18:05:06.917Z,56.83
2018-08-31T18:07:34.673Z,57.01
2018-08-31T18:10:02.525Z,57.61
2018-08-31T18:12:30.263Z,57.49
2018-08-31T18:14:58.267Z,56.94
2018-08-31T18:17:25.991Z,57.00
2018-08-31T18:19:53.729Z,56.87
2018-08-31T18:22:21.500Z,56.98
2018-08-31T18:24:49.366Z,57.64
2018-08-31T18:27:16.996Z,57.43
2018-08-31T18:29:44.616Z,56.89
2018-08-31T18:32:12.241Z,57.13
2018-08-31T18:34:39.902Z,57.49
2018-08-31T18:37:07.517Z,56.96
2018-08-31T18:39:35.171Z,57.23
2018-08-31T18:42:02.818Z,56.68
2018-08-31T18:44:30.472Z,57.07
2018-08-31T18:46:58.107Z,57.47
2018-08-31T18:49:25.752Z,57.41
2018-08-31T18:51:53.368Z,56.74
2018-08-31T18:54:20.983Z,56.89
2018-08-31T18:56:48.609Z,57.23
2018-08-31T18:59:16.367Z,56.55
2018-08-31T19:01:43.985Z,56.81
2018-08-31T19:04:11.613Z,56.92
2018-08-31T19:06:39.257Z,57.24
2018-08-31T19:09:07.398Z,56.99
2018-08-31T19:11:35.081Z,56.81
2018-08-31T19:14:02.720Z,56.93
2018-08-31T19:16:30.422Z,57.19
2018-08-31T19:18:58.093Z,56.45
2018-08-31T19:21:25.808Z,56.41
2018-08-31T19:23:53.507Z,56.53
2018-08-31T19:26:21.280Z,56.48
2018-08-31T19:28:49.072Z,56.32
2018-08-31T19:31:17.028Z,56.49
2018-08-31T19:33:44.853Z,57.01
2018-08-31T19:36:12.604Z,56.29
2018-08-31T19:38:40.450Z,57.08
2018-08-31T19:41:08.245Z,56.55
2018-08-31T19:43:36.153Z,57.06
2018-08-31T19:46:03.917Z,56.38
2018-08-31T19:48:31.609Z,57.02
2018-08-31T19:50:59.464Z,56.97
2018-08-31T19:53:27.161Z,56.21
2018-08-31T19:55:54.989Z,56.86
2018-08-31T19:58:22.730Z,56.97
2018-08-31T20:00:50.437Z,56.19
2018-08-31T20:03:18.267Z,56.74
2018-08-31T20:05:45.992Z,56.82
2018-08-31T20:08:13.665Z,56.37
2018-08-31T20:10:41.400Z,56.87
2018-08-31T20:13:09.150Z,56.26
2018-08-31T20:15:36.801Z,56.82
2018-08-31T20:18:04.694Z,56.11
2018-08-31T20:20:32.406Z,56.85
2018-08-31T20:23:00.071Z,56.25
2018-08-31T20:25:27.758Z,56.76
2018-08-31T20:27:55.392Z,56.92
2018-08-31T20:30:23.072Z,56.05
2018-08-31T20:32:50.768Z,56.34
2018-08-31T20:35:18.432Z,56.76
2018-08-31T20:37:46.068Z,57.03
2018-08-31T20:40:13.856Z,56.61
2018-08-31T20:42:41.645Z,56.71
2018-08-31T20:45:09.848Z,56.05
2018-08-31T20:47:37.546Z,56.12
2018-08-31T20:50:05.347Z,55.95
2018-08-31T20:52:33.056Z,56.55
2018-08-31T20:55:01.029Z,56.52
2018-08-31T20:57:28.776Z,56.11
2018-08-31T20:59:57.099Z,56.70
2018-08-31T21:02:25.021Z,56.61
2018-08-31T21:04:52.706Z,55.99
2018-08-31T21:07:20.461Z,56.65
2018-08-31T21:09:48.180Z,56.78
2018-08-31T21:12:15.849Z,56.35
2018-08-31T21:14:43.598Z,56.96
2018-08-31T21:17:11.282Z,56.09
2018-08-31T21:19:38.960Z,56.96
2018-08-31T21:22:06.705Z,56.53
2018-08-31T21:24:34.392Z,57.28
2018-08-31T21:27:02.099Z,57.13
2018-08-31T21:29:29.820Z,56.79
2018-08-31T21:31:57.674Z,56.66
2018-08-31T21:34:25.361Z,56.92
2018-08-31T21:36:53.061Z,57.11
2018-08-31T21:39:20.774Z,57.46
2018-08-31T21:41:48.529Z,57.06
2018-08-31T21:44:16.281Z,57.99
2018-08-31T21:46:44.012Z,57.09
2018-08-31T21:49:11.694Z,57.45
2018-08-31T21:51:39.393Z,58.33
2018-08-31T21:54:07.119Z,57.58
2018-08-31T21:56:34.821Z,57.74
2018-08-31T21:59:02.573Z,57.63
2018-08-31T22:01:35.613Z,58.43
2018-08-31T22:04:03.561Z,58.44
2018-08-31T22:06:31.681Z,58.32
2018-08-31T22:08:59.328Z,58.02
2018-08-31T22:11:26.957Z,58.67
2018-08-31T22:13:54.634Z,58.87
2018-08-31T22:16:22.247Z,59.10
2018-08-31T22:18:49.893Z,59.01
2018-08-31T22:21:17.602Z,58.92
2018-08-31T22:23:45.238Z,57.95
2018-08-31T22:26:12.925Z,58.43
2018-08-31T22:28:40.579Z,58.31
2018-08-31T22:31:08.214Z,57.48
2018-08-31T22:33:35.950Z,58.21
2018-08-31T22:36:03.692Z,57.59
2018-08-31T22:38:31.323Z,57.49
2018-08-31T22:40:58.949Z,57.27
2018-08-31T22:43:32.125Z,58.07
2018-08-31T22:45:59.734Z,57.24
2018-08-31T22:48:27.456Z,57.52
2018-08-31T22:50:55.264Z,57.22
2018-08-31T22:53:23.061Z,57.89
2018-08-31T22:55:50.873Z,57.16
2018-08-31T22:58:18.614Z,57.75
2018-08-31T23:00:46.382Z,57.90
2018-08-31T23:03:14.101Z,57.81
2018-08-31T23:05:41.842Z,57.61
2018-08-31T23:08:09.602Z,56.97
2018-08-31T23:10:37.374Z,57.72
2018-08-31T23:13:05.180Z,57.38
2018-08-31T23:15:33.001Z,57.36
2018-08-31T23:18:00.842Z,57.64
2018-08-31T23:20:28.673Z,57.49
2018-08-31T23:23:01.821Z,57.51
2018-08-31T23:25:34.861Z,57.55
2018-08-31T23:28:02.654Z,57.49
2018-08-31T23:30:30.424Z,57.18
2018-08-31T23:32:58.204Z,56.79
2018-08-31T23:35:26.000Z,57.15
2018-08-31T23:37:53.904Z,56.67
2018-08-31T23:40:21.637Z,57.42
2018-08-31T23:42:49.423Z,56.82
2018-08-31T23:45:17.176Z,56.64
2018-08-31T23:47:44.992Z,56.74
2018-08-31T23:50:12.733Z,56.67
2018-08-31T23:52:40.558Z,57.25
2018-08-31T23:55:08.275Z,57.27
2018-08-31T23:57:36.042Z,56.56
